Time;durP1;ratioP1;P1;durP2;ratioP2;P2;SDS_P1;SDS_P2;PMS_P1;PMS_P2;Temp;Humidity;BMP_temperature;BMP_pressure;BME280_temperature;BME280_humidity;BME280_pressure;Samples;Min_cycle;Max_cycle;Signal;HPM_P1;HPM_P2
2022/05/07 00:02:18;;;;;;;15.75;12.20;;;;;;;12.75;100.00;102308.16;5051843;28;20052;-36
2022/05/07 00:04:46;;;;;;;13.82;10.65;;;;;;;12.74;100.00;102298.91;5051062;28;20055;-29
2022/05/07 00:07:16;;;;;;;17.88;13.20;;;;;;;12.74;100.00;102304.50;5051673;28;20060;-29
2022/05/07 00:09:43;;;;;;;15.88;12.25;;;;;;;12.75;100.00;102295.00;5050975;28;20136;-32
2022/05/07 00:12:12;;;;;;;16.05;13.18;;;;;;;12.76;100.00;102293.03;5051411;28;20049;-31
2022/05/07 00:14:40;;;;;;;19.35;13.35;;;;;;;12.77;100.00;102303.13;5051774;28;20094;-34
2022/05/07 00:19:54;;;;;;;18.23;13.82;;;;;;;12.76;100.00;102302.28;5051530;28;20059;-34
2022/05/07 00:22:23;;;;;;;19.73;13.43;;;;;;;12.79;100.00;102297.25;5051820;28;20131;-31
2022/05/07 00:24:51;;;;;;;19.25;13.63;;;;;;;12.80;100.00;102293.28;5051293;28;20056;-31
2022/05/07 00:27:20;;;;;;;18.55;13.20;;;;;;;12.80;100.00;102287.69;5051471;28;20052;-32
2022/05/07 00:29:48;;;;;;;20.90;13.52;;;;;;;12.80;100.00;102287.69;5051560;28;20045;-31
2022/05/07 00:32:15;;;;;;;16.08;11.30;;;;;;;12.79;100.00;102281.25;5050825;28;20421;-35
2022/05/07 00:34:43;;;;;;;15.98;11.52;;;;;;;12.79;100.00;102288.84;5051368;28;20045;-30
2022/05/07 00:37:11;;;;;;;18.75;12.40;;;;;;;12.78;100.00;102290.78;5050275;28;20053;-31
2022/05/07 00:39:40;;;;;;;15.95;12.15;;;;;;;12.76;100.00;102299.47;5066287;28;20053;-29
2022/05/07 00:42:09;;;;;;;17.88;11.45;;;;;;;12.73;100.00;102288.81;5050084;28;20053;-26
2022/05/07 00:44:37;;;;;;;15.23;10.10;;;;;;;12.73;100.00;102288.81;5052374;28;20055;-38
2022/05/07 00:47:16;;;;;;;15.57;11.27;;;;;;;12.74;100.00;102287.69;5055318;28;20049;-29
2022/05/07 00:49:45;;;;;;;18.65;11.02;;;;;;;12.72;100.00;102291.91;5053909;28;20144;-38
2022/05/07 00:52:12;;;;;;;16.70;10.52;;;;;;;12.73;100.00;102296.38;5054541;28;20063;-33
2022/05/07 00:54:42;;;;;;;14.45;10.50;;;;;;;12.73;100.00;102286.03;5053461;28;20059;-32
2022/05/07 00:57:10;;;;;;;14.90;9.75;;;;;;;12.74;100.00;102289.66;5055064;28;20091;-29
2022/05/07 00:59:39;;;;;;;13.82;8.73;;;;;;;12.71;100.00;102296.66;5053137;28;20045;-28
2022/05/07 01:02:07;;;;;;;9.13;6.70;;;;;;;12.71;100.00;102288.25;5053614;28;20041;-34
2022/05/07 01:04:36;;;;;;;13.23;8.93;;;;;;;12.73;100.00;102288.81;5054891;28;20040;-34
2022/05/07 01:07:04;;;;;;;12.48;8.00;;;;;;;12.73;100.00;102287.97;5052983;28;20063;-29
2022/05/07 01:09:32;;;;;;;14.35;8.38;;;;;;;12.71;100.00;102282.66;5053057;28;20064;-31
2022/05/07 01:12:02;;;;;;;11.50;7.63;;;;;;;12.71;100.00;102285.47;5054854;28;20059;-31
2022/05/07 01:14:29;;;;;;;14.85;7.68;;;;;;;12.69;100.00;102279.28;5069556;28;20525;-25
2022/05/07 01:16:57;;;;;;;11.25;6.25;;;;;;;12.68;100.00;102280.41;5070238;28;20060;-36
2022/05/07 01:19:25;;;;;;;14.38;8.82;;;;;;;12.69;100.00;102279.28;5070045;28;20048;-34
2022/05/07 01:21:55;;;;;;;12.45;8.23;;;;;;;12.70;100.00;102277.34;5054015;28;20052;-30
2022/05/07 01:24:22;;;;;;;17.33;9.27;;;;;;;12.70;100.00;102277.34;5054296;28;20045;-30
2022/05/07 01:26:50;;;;;;;12.38;7.75;;;;;;;12.69;100.00;102272.84;5052741;28;20079;-29
2022/05/07 01:29:18;;;;;;;14.85;10.35;;;;;;;12.68;100.00;102268.38;5054296;28;20045;-32
2022/05/07 01:31:46;;;;;;;9.63;6.68;;;;;;;12.67;100.00;102273.13;5054330;28;20053;-30
2022/05/07 01:34:14;;;;;;;13.20;8.38;;;;;;;12.66;100.00;102265.84;5052566;28;20049;-29
2022/05/07 01:36:48;;;;;;;12.40;8.50;;;;;;;12.63;100.00;102259.94;5052687;28;20501;-32
2022/05/07 01:39:18;;;;;;;13.00;8.38;;;;;;;12.62;100.00;102270.31;5053136;28;20051;-26
2022/05/07 01:41:46;;;;;;;10.35;6.90;;;;;;;12.61;100.00;102276.19;5053993;28;20037;-28
2022/05/07 01:44:14;;;;;;;10.38;6.85;;;;;;;12.59;100.00;102265.25;5054036;28;20494;-33
2022/05/07 01:49:32;;;;;;;8.52;5.57;;;;;;;12.55;100.00;102268.91;5052456;28;20063;-28
2022/05/07 01:52:01;;;;;;;8.55;6.45;;;;;;;12.55;100.00;102257.72;5069236;28;20049;-32
2022/05/07 01:54:31;;;;;;;11.75;7.55;;;;;;;12.53;100.00;102263.59;5069251;28;20049;-29
2022/05/07 01:57:00;;;;;;;8.00;5.70;;;;;;;12.52;100.00;102264.72;5068379;28;20080;-31
2022/05/07 01:59:28;;;;;;;8.40;5.70;;;;;;;12.50;100.00;102261.34;5052540;28;20049;-30
2022/05/07 02:01:59;;;;;;;8.85;6.90;;;;;;;12.49;100.00;102258.81;5052098;28;20053;-27
2022/05/07 02:04:27;;;;;;;7.85;5.53;;;;;;;12.47;100.00;102266.66;5068961;28;20075;-29
2022/05/07 02:06:56;;;;;;;10.32;6.68;;;;;;;12.46;100.00;102254.63;5052485;28;20052;-34
2022/05/07 02:09:25;;;;;;;9.55;5.93;;;;;;;12.43;100.00;102256.00;5068532;28;20056;-28
2022/05/07 02:11:54;;;;;;;11.57;8.40;;;;;;;12.42;100.00;102259.91;5068630;28;20139;-35
2022/05/07 02:14:24;;;;;;;11.45;7.15;;;;;;;12.41;100.00;102263.00;5052153;28;20057;-36
2022/05/07 02:16:51;;;;;;;9.63;5.60;;;;;;;12.39;100.00;102268.03;5053124;28;20103;-29
2022/05/07 02:19:19;;;;;;;11.35;7.97;;;;;;;12.39;100.00;102270.84;5053193;28;20402;-35
2022/05/07 02:21:48;;;;;;;11.45;7.50;;;;;;;12.38;100.00;102269.19;5052119;28;20405;-26
2022/05/07 02:24:16;;;;;;;9.88;6.25;;;;;;;12.37;100.00;102267.50;5052755;28;20052;-29
2022/05/07 02:26:44;;;;;;;8.13;4.93;;;;;;;12.37;100.00;102261.91;5051729;28;20076;-34
2022/05/07 02:29:14;;;;;;;8.98;5.15;;;;;;;12.36;100.00;102260.22;5051745;28;20148;-34
2022/05/07 02:32:03;;;;;;;5.25;3.85;;;;;;;12.34;100.00;102257.69;5068017;28;20075;-34
2022/05/07 02:34:32;;;;;;;7.60;4.63;;;;;;;12.33;100.00;102260.75;5068436;28;20558;-33
2022/05/07 02:37:02;;;;;;;9.13;4.82;;;;;;;12.34;100.00;102274.47;5051722;28;20063;-28
2022/05/07 02:39:30;;;;;;;12.02;7.13;;;;;;;12.35;100.00;102278.97;5050824;28;20144;-35
2022/05/07 02:44:46;;;;;;;10.43;6.47;;;;;;;12.33;100.00;102274.75;5051440;28;20055;-27
2022/05/07 02:47:13;;;;;;;7.82;5.28;;;;;;;12.32;100.00;102265.53;5052714;28;20429;-34
2022/05/07 02:49:41;;;;;;;19.20;9.98;;;;;;;12.32;100.00;102271.13;5052589;28;20056;-31
2022/05/07 02:52:13;;;;;;;9.88;6.00;;;;;;;12.31;100.00;102268.59;5067801;28;20490;-29
2022/05/07 02:54:40;;;;;;;9.45;5.60;;;;;;;12.30;100.00;102275.31;5052602;28;20045;-31
2022/05/07 02:57:08;;;;;;;10.68;5.10;;;;;;;12.29;100.00;102266.06;5052758;28;20053;-35
2022/05/07 02:59:38;;;;;;;11.68;8.52;;;;;;;12.29;100.00;102262.44;5050688;28;20144;-36
2022/05/07 03:02:08;;;;;;;7.75;5.78;;;;;;;12.28;100.00;102260.75;5050996;28;20147;-29
2022/05/07 03:04:36;;;;;;;6.10;4.30;;;;;;;12.27;100.00;102267.47;5052778;28;20071;-27
2022/05/07 03:07:04;;;;;;;8.20;5.30;;;;;;;12.24;100.00;102260.44;5051377;28;20093;-34
2022/05/07 03:09:33;;;;;;;11.00;5.32;;;;;;;12.25;100.00;102269.69;5050732;28;20080;-31
2022/05/07 03:12:01;;;;;;;5.80;3.85;;;;;;;12.23;100.00;102267.16;5051058;28;20072;-30
2022/05/07 03:14:29;;;;;;;8.00;4.57;;;;;;;12.23;100.00;102258.75;5050368;28;20041;-27
2022/05/07 03:16:57;;;;;;;6.78;4.47;;;;;;;12.24;100.00;102268.00;5050987;28;20144;-31
2022/05/07 03:19:26;;;;;;;6.28;4.45;;;;;;;12.24;100.00;102277.25;5050601;28;20053;-29
2022/05/07 03:21:54;;;;;;;7.88;5.00;;;;;;;12.25;100.00;102261.28;5067500;28;20139;-31
2022/05/07 03:24:25;;;;;;;7.18;5.03;;;;;;;12.24;100.00;102273.59;5067860;28;20140;-33
2022/05/07 03:26:52;;;;;;;8.20;5.57;;;;;;;12.25;100.00;102275.28;5051734;28;20502;-32
2022/05/07 03:29:23;;;;;;;7.13;5.40;;;;;;;12.24;100.00;102279.19;5050635;28;20057;-30
2022/05/07 03:31:58;;;;;;;7.55;5.53;;;;;;;12.23;100.00;102297.94;5067302;28;20409;-31
2022/05/07 03:34:27;;;;;;;11.80;7.70;;;;;;;12.24;100.00;102304.38;5050396;28;20059;-30
2022/05/07 03:36:55;;;;;;;10.85;7.97;;;;;;;12.23;100.00;102291.50;5067285;28;20144;-33
2022/05/07 03:39:24;;;;;;;9.25;5.82;;;;;;;12.22;100.00;102293.47;5052216;28;20049;-29
2022/05/07 03:41:51;;;;;;;14.88;10.15;;;;;;;12.23;100.00;102289.56;5049879;28;20533;-34
2022/05/07 03:44:21;;;;;;;10.63;8.05;;;;;;;12.23;100.00;102295.16;5050198;28;20084;-32
2022/05/07 03:46:52;;;;;;;13.00;8.13;;;;;;;12.23;100.00;102291.50;5067267;28;20045;-33
2022/05/07 03:49:22;;;;;;;11.55;8.93;;;;;;;12.22;100.00;102287.03;5049606;28;20111;-32
2022/05/07 03:54:39;;;;;;;10.45;7.47;;;;;;;12.20;100.00;102295.69;5050111;28;20076;-34
2022/05/07 03:57:09;;;;;;;10.38;7.15;;;;;;;12.18;100.00;102291.50;5050303;28;20103;-31
2022/05/07 03:59:37;;;;;;;16.33;10.93;;;;;;;12.17;100.00;102287.03;5051784;28;20041;-37
2022/05/07 04:02:05;;;;;;;15.48;10.27;;;;;;;12.17;100.00;102289.84;5049591;28;20139;-33
2022/05/07 04:04:53;;;;;;;11.95;9.52;;;;;;;12.13;100.00;102294.28;5050257;28;20140;-27
2022/05/07 04:07:23;;;;;;;10.50;7.30;;;;;;;12.13;100.00;102299.88;5050463;28;20053;-34
2022/05/07 04:10:04;;;;;;;;;;;;;;;12.05;100.00;102299.28;5050358;28;20080;-35
2022/05/07 04:12:36;;;;;;;14.75;9.60;;;;;;;12.02;100.00;102302.63;5050063;28;19960;-36
2022/05/07 04:15:06;;;;;;;13.63;8.95;;;;;;;12.04;100.00;102297.59;5066848;28;20057;-31
2022/05/07 04:17:37;;;;;;;11.13;7.43;;;;;;;12.04;100.00;102294.81;5049953;28;20057;-34
2022/05/07 04:20:06;;;;;;;13.40;9.90;;;;;;;12.03;100.00;102301.53;5054476;28;20059;-33
2022/05/07 04:22:39;;;;;;;12.82;9.63;;;;;;;12.02;100.00;102305.44;5054487;28;20055;-32
2022/05/07 04:25:10;;;;;;;11.65;8.60;;;;;;;12.00;100.00;102301.22;5055288;28;20051;-32
2022/05/07 04:27:42;;;;;;;13.23;8.98;;;;;;;11.99;100.00;102299.56;5052576;28;20084;-26
2022/05/07 04:30:11;;;;;;;15.63;11.40;;;;;;;11.99;100.00;102305.16;5053928;28;20049;-34
2022/05/07 04:32:38;;;;;;;16.80;11.85;;;;;;;11.99;100.00;102305.97;5054098;28;20084;-32
2022/05/07 04:35:09;;;;;;;11.35;9.20;;;;;;;11.99;100.00;102314.38;5069704;28;20059;-32
2022/05/07 04:37:40;;;;;;;11.45;7.72;;;;;;;11.99;100.00;102311.56;5068713;28;20460;-29
2022/05/07 04:40:10;;;;;;;13.18;9.98;;;;;;;12.01;100.00;102319.69;5052408;28;20053;-28
2022/05/07 04:42:42;;;;;;;15.02;11.75;;;;;;;12.03;100.00;102323.06;5052846;28;20548;-33
2022/05/07 04:45:11;;;;;;;22.63;14.32;;;;;;;12.04;100.00;102324.75;5068923;28;20140;-34
2022/05/07 04:47:50;;;;;;;16.90;12.00;;;;;;;12.05;100.00;102315.25;5053045;28;20075;-29
2022/05/07 04:50:26;;;;;;;16.50;12.95;;;;;;;12.06;100.00;102312.16;5053907;28;20045;-33
2022/05/07 04:53:11;;;;;;;22.38;15.43;;;;;;;12.07;100.00;102325.03;5068834;28;20445;-28
2022/05/07 04:55:40;;;;;;;20.27;14.30;;;;;;;12.10;100.00;102320.03;5069562;28;20087;-32
2022/05/07 04:58:08;;;;;;;29.30;20.33;;;;;;;12.12;100.00;102326.19;5051977;28;20713;-31
2022/05/07 05:00:39;;;;;;;23.90;16.80;;;;;;;12.13;100.00;102323.13;5069060;28;20458;-34
2022/05/07 05:03:13;;;;;;;18.58;13.48;;;;;;;12.14;100.00;102324.81;5069431;28;20053;-37
2022/05/07 05:05:46;;;;;;;14.35;11.15;;;;;;;12.17;100.00;102317.81;5052134;28;20139;-34
2022/05/07 05:08:30;;;;;;;17.95;13.50;;;;;;;12.21;100.00;102327.31;5068803;28;20054;-27
2022/05/07 05:10:59;;;;;;;16.95;13.57;;;;;;;12.23;100.00;102330.69;5069078;28;20490;-27
2022/05/07 05:13:31;;;;;;;20.52;16.45;;;;;;;12.27;100.00;102334.63;5068034;28;20052;-29
2022/05/07 05:16:00;;;;;;;22.23;17.80;;;;;;;12.30;100.00;102343.31;5069033;28;20053;-36
2022/05/07 05:18:40;;;;;;;21.98;15.80;;;;;;;12.33;100.00;102334.38;5052295;28;20522;-33
2022/05/07 05:21:11;;;;;;;17.60;13.15;;;;;;;12.37;100.00;102341.13;5049301;28;20103;-27
2022/05/07 05:23:58;;;;;;;12.90;10.23;;;;;;;12.41;100.00;102342.22;5053724;28;20099;-27
2022/05/07 05:26:27;;;;;;;17.25;12.68;;;;;;;12.46;100.00;102337.75;5051224;28;20045;-32
2022/05/07 05:28:58;;;;;;;24.52;17.55;;;;;;;12.51;100.00;102340.59;5068592;28;20055;-34
2022/05/07 05:31:28;;;;;;;21.48;16.90;;;;;;;12.55;100.00;102350.13;5067790;28;20041;-29
2022/05/07 05:34:02;;;;;;;15.60;11.98;;;;;;;12.58;100.00;102346.78;5051222;28;20057;-30
2022/05/07 05:36:37;;;;;;;17.58;14.02;;;;;;;12.63;100.00;102344.81;5051801;28;20107;-29
2022/05/07 05:39:07;;;;;;;23.63;17.88;;;;;;;12.70;100.00;102352.94;5068286;28;20049;-34
2022/05/07 05:41:35;;;;;;;21.90;16.17;;;;;;;12.75;100.00;102355.78;5067602;28;20083;-32
2022/05/07 05:44:04;;;;;;;24.77;16.45;;;;;;;12.80;100.00;102349.31;5051657;28;20053;-30
2022/05/07 05:46:33;;;;;;;17.63;14.75;;;;;;;12.87;100.00;102352.69;5051748;28;20045;-36
2022/05/07 05:49:01;;;;;;;20.75;16.83;;;;;;;12.91;100.00;102353.81;5067398;28;20106;-36
2022/05/07 05:51:29;;;;;;;23.23;19.15;;;;;;;12.97;100.00;102356.38;5051352;28;20060;-30
2022/05/07 05:53:57;;;;;;;23.98;18.45;;;;;;;13.02;100.00;102358.31;5068263;28;20564;-37
2022/05/07 05:56:27;;;;;;;19.95;15.82;;;;;;;13.08;100.00;102346.00;5050669;28;20060;-35
2022/05/07 05:58:58;;;;;;;20.58;16.95;;;;;;;13.14;100.00;102360.84;5051528;28;20067;-29
2022/05/07 06:01:34;;;;;;;21.45;17.63;;;;;;;13.22;100.00;102363.94;5050776;28;20061;-35
2022/05/07 06:04:25;;;;;;;22.58;17.70;;;;;;;13.29;100.00;102367.31;5044252;28;20436;-34
2022/05/07 06:06:55;;;;;;;31.42;22.90;;;;;;;13.39;100.00;102372.91;5051283;28;20063;-32
2022/05/07 06:09:23;;;;;;;23.00;17.67;;;;;;;13.44;100.00;102372.06;5067367;28;20057;-29
2022/05/07 06:11:54;;;;;;;22.95;17.45;;;;;;;13.48;100.00;102369.56;5050877;28;20049;-31
2022/05/07 06:14:22;;;;;;;25.23;18.73;;;;;;;13.54;100.00;102377.69;5052317;28;20547;-33
2022/05/07 06:16:57;;;;;;;25.63;19.20;;;;;;;13.62;100.00;102377.09;5050291;28;20087;-31
2022/05/07 06:19:26;;;;;;;30.42;22.42;;;;;;;13.73;100.00;102389.16;5050891;28;20559;-36
2022/05/07 06:21:54;;;;;;;30.67;23.98;;;;;;;13.82;100.00;102384.63;5048809;28;20164;-34
2022/05/07 06:27:31;;;;;;;28.45;20.77;;;;;;;14.07;100.00;102386.53;5050486;28;20048;-31
2022/05/07 06:30:06;;;;;;;21.35;17.30;;;;;;;14.21;100.00;102386.78;5066856;28;20061;-33
2022/05/07 06:32:45;;;;;;;29.08;22.10;;;;;;;14.34;100.00;102388.97;5035193;28;20149;-32
2022/05/07 06:35:12;;;;;;;24.88;19.73;;;;;;;14.44;100.00;102391.75;5067550;28;20106;-34
2022/05/07 06:37:55;;;;;;;26.63;20.85;;;;;;;14.50;100.00;102403.81;5049800;28;20727;-29
2022/05/07 06:40:26;;;;;;;25.92;17.65;;;;;;;14.56;100.00;102403.53;5067265;28;20052;-32
2022/05/07 06:42:55;;;;;;;29.92;21.65;;;;;;;14.69;100.00;102396.41;5050521;28;20049;-34
2022/05/07 06:45:41;;;;;;;27.45;19.40;;;;;;;14.82;100.00;102402.22;5051361;28;20085;-32
2022/05/07 06:48:11;;;;;;;28.08;21.77;;;;;;;15.01;100.00;102402.38;5050518;28;20060;-34
2022/05/07 06:50:41;;;;;;;24.58;18.85;;;;;;;15.16;100.00;102398.66;5043787;28;20474;-34
2022/05/07 06:53:10;;;;;;;25.70;20.05;;;;;;;15.30;100.00;102405.28;5064587;28;20048;-34
2022/05/07 06:55:54;;;;;;;23.45;17.35;;;;;;;15.37;100.00;102404.97;5050865;28;20409;-30
2022/05/07 06:58:25;;;;;;;22.02;16.75;;;;;;;15.44;100.00;102411.06;5050846;28;20463;-36
2022/05/07 07:00:59;;;;;;;22.10;16.08;;;;;;;15.45;100.00;102399.53;5051279;28;20114;-34
2022/05/07 07:03:27;;;;;;;27.98;21.48;;;;;;;15.49;100.00;102405.41;5050859;28;20066;-31
2022/05/07 07:05:57;;;;;;;28.05;20.20;;;;;;;15.51;100.00;102414.38;5050139;28;20049;-32
2022/05/07 07:08:30;;;;;;;32.85;23.98;;;;;;;15.55;100.00;102411.84;5051681;28;20064;-30
2022/05/07 07:10:59;;;;;;;24.38;18.35;;;;;;;15.54;100.00;102410.16;5051375;28;20059;-37
2022/05/07 07:13:28;;;;;;;28.42;20.45;;;;;;;15.60;100.00;102417.44;5049821;28;20062;-33
2022/05/07 07:15:56;;;;;;;32.47;23.50;;;;;;;15.69;100.00;102412.84;5050891;28;20055;-28
2022/05/07 07:18:24;;;;;;;22.13;16.98;;;;;;;15.76;100.00;102411.38;5050946;28;20525;-36
2022/05/07 07:20:51;;;;;;;22.60;16.83;;;;;;;15.83;100.00;102411.84;5048150;28;20045;-29
2022/05/07 07:23:19;;;;;;;25.08;18.50;;;;;;;15.93;100.00;102415.72;5051352;28;20041;-30
2022/05/07 07:25:47;;;;;;;26.23;19.60;;;;;;;15.98;100.00;102415.66;5049860;28;20037;-31
2022/05/07 07:28:14;;;;;;;23.10;17.25;;;;;;;16.04;100.00;102420.94;5050596;28;20049;-32
2022/05/07 07:30:47;;;;;;;24.90;17.42;;;;;;;16.17;100.00;102425.03;5050759;28;20052;-29
2022/05/07 07:33:14;;;;;;;21.95;16.50;;;;;;;16.29;100.00;102421.78;5050261;28;20053;-30
2022/05/07 07:35:43;;;;;;;27.38;20.33;;;;;;;16.45;100.00;102428.91;5050050;28;20053;-36
2022/05/07 07:38:11;;;;;;;23.50;18.33;;;;;;;16.64;100.00;102429.81;5050932;28;20056;-33
2022/05/07 07:40:40;;;;;;;28.52;19.35;;;;;;;16.85;100.00;102433.19;5050235;28;20064;-34
2022/05/07 07:43:10;;;;;;;21.27;15.43;;;;;;;17.04;100.00;102433.22;5050621;28;20045;-37
2022/05/07 07:48:24;;;;;;;27.65;19.52;;;;;;;17.36;100.00;102447.41;5050314;28;20052;-36
2022/05/07 07:50:52;;;;;;;21.85;15.77;;;;;;;17.49;100.00;102451.41;5050273;28;20053;-33
2022/05/07 07:53:22;;;;;;;24.42;16.77;;;;;;;17.67;100.00;102446.91;5049712;28;20053;-35
2022/05/07 07:55:51;;;;;;;19.97;14.60;;;;;;;17.85;100.00;102448.84;5049301;28;20053;-33
2022/05/07 07:58:20;;;;;;;22.52;15.60;;;;;;;18.10;100.00;102454.03;5050240;28;20847;-30
2022/05/07 08:00:49;;;;;;;24.35;16.95;;;;;;;18.41;100.00;102457.09;5049896;28;20060;-28
2022/05/07 08:03:19;;;;;;;25.15;17.20;;;;;;;18.93;100.00;102457.72;5048109;28;20056;-32
2022/05/07 08:05:49;;;;;;;25.67;16.60;;;;;;;19.59;100.00;102456.16;5049536;28;20049;-29
2022/05/07 08:13:53;;;;;;;21.60;15.05;;;;;;;21.12;98.72;102464.91;5050221;28;20445;-32
2022/05/07 08:16:22;;;;;;;17.40;12.88;;;;;;;21.70;95.72;102460.75;5049756;28;20051;-34
2022/05/07 08:18:50;;;;;;;22.98;15.27;;;;;;;22.31;92.13;102458.63;5049935;28;20449;-34
2022/05/07 08:21:20;;;;;;;21.13;13.77;;;;;;;22.95;87.80;102465.03;5063782;28;20450;-33
2022/05/07 08:23:48;;;;;;;16.58;12.27;;;;;;;23.54;83.27;102466.97;5049778;28;20521;-33
2022/05/07 08:26:16;;;;;;;16.70;12.43;;;;;;;23.95;79.01;102466.06;5050282;28;20068;-30
2022/05/07 08:28:45;;;;;;;19.20;12.48;;;;;;;24.26;75.54;102469.25;5050262;28;20045;-35
2022/05/07 08:31:13;;;;;;;15.82;10.68;;;;;;;24.54;72.50;102477.16;5049605;28;20041;-31
2022/05/07 08:33:42;;;;;;;16.48;11.38;;;;;;;24.68;69.99;102481.31;5049508;28;20056;-30
2022/05/07 08:36:11;;;;;;;14.35;10.52;;;;;;;24.75;68.61;102482.75;5049325;28;20049;-30
2022/05/07 08:38:42;;;;;;;15.63;11.27;;;;;;;24.86;66.42;102476.19;5048915;28;20041;-29
2022/05/07 08:41:11;;;;;;;12.93;10.05;;;;;;;24.88;65.71;102473.81;5050403;28;20048;-33
2022/05/07 08:43:42;;;;;;;18.05;12.98;;;;;;;24.98;64.29;102472.53;5049621;28;20056;-36
2022/05/07 08:46:12;;;;;;;16.27;11.30;;;;;;;25.14;62.37;102484.88;5049336;28;20525;-30
2022/05/07 08:48:43;;;;;;;16.93;11.60;;;;;;;25.15;61.03;102485.72;5050315;28;20037;-33
2022/05/07 08:51:10;;;;;;;15.52;11.32;;;;;;;25.31;60.48;102481.75;5048874;28;20306;-30
2022/05/07 08:53:38;;;;;;;18.98;12.82;;;;;;;25.65;58.78;102483.22;5047281;28;20059;-29
2022/05/07 08:56:10;;;;;;;19.00;14.45;;;;;;;25.79;55.81;102484.81;5050050;28;20081;-29
2022/05/07 08:58:38;;;;;;;15.35;11.65;;;;;;;25.78;55.43;102486.84;5049187;28;20144;-33
2022/05/07 09:01:06;;;;;;;15.52;11.73;;;;;;;25.88;54.98;102476.94;5048869;28;20049;-31
2022/05/07 09:03:40;;;;;;;18.30;12.82;;;;;;;26.05;54.42;102485.19;5049773;28;20055;-31
2022/05/07 09:06:16;;;;;;;17.52;12.80;;;;;;;26.24;52.55;102484.47;5051608;28;20091;-31
2022/05/07 09:08:46;;;;;;;15.00;11.75;;;;;;;26.40;52.25;102486.19;5053640;28;20150;-29
2022/05/07 09:11:16;;;;;;;15.88;11.35;;;;;;;26.56;51.55;102488.25;5053215;28;20494;-36
2022/05/07 09:13:45;;;;;;;14.20;9.82;;;;;;;26.70;51.24;102494.31;5052928;28;20512;-34
2022/05/07 09:16:14;;;;;;;13.00;8.77;;;;;;;26.83;50.02;102486.44;5053332;28;20057;-29
2022/05/07 09:18:48;;;;;;;11.68;7.85;;;;;;;26.93;48.80;102498.19;5052684;28;20055;-31
2022/05/07 09:21:20;;;;;;;11.63;8.35;;;;;;;27.11;48.89;102492.91;5050802;28;20479;-33
2022/05/07 09:23:51;;;;;;;14.85;9.85;;;;;;;27.29;47.26;102493.31;5051932;28;20482;-29
2022/05/07 09:26:28;;;;;;;15.02;9.48;;;;;;;27.36;46.38;102500.06;5052370;28;20056;-34
2022/05/07 09:28:56;;;;;;;14.05;9.70;;;;;;;27.46;46.12;102498.63;5053120;28;20041;-31
2022/05/07 09:31:26;;;;;;;11.35;8.60;;;;;;;27.66;45.50;102503.19;5053608;28;20041;-36
2022/05/07 09:33:55;;;;;;;12.02;9.32;;;;;;;27.79;44.65;102498.97;5051875;28;20135;-30
2022/05/07 09:36:23;;;;;;;12.48;8.93;;;;;;;27.89;44.71;102511.88;5052557;28;20057;-33
2022/05/07 09:39:00;;;;;;;9.05;6.72;;;;;;;28.00;43.22;102506.34;5053037;28;20053;-35
2022/05/07 09:41:29;;;;;;;13.07;8.63;;;;;;;28.02;43.94;102503.94;5051637;28;20099;-29
2022/05/07 09:43:59;;;;;;;12.57;8.98;;;;;;;28.20;44.29;102510.06;5053408;28;20049;-34
2022/05/07 09:46:30;;;;;;;10.40;8.40;;;;;;;28.39;43.34;102510.84;5053028;28;20080;-34
2022/05/07 09:49:01;;;;;;;14.40;10.43;;;;;;;28.52;42.82;102513.56;5053624;28;20047;-36
2022/05/07 09:51:30;;;;;;;11.80;9.00;;;;;;;28.35;42.84;102512.84;5052154;28;20081;-30
2022/05/07 09:59:32;;;;;;;11.57;8.05;;;;;;;27.94;44.76;102523.06;5053927;28;20102;-29
2022/05/07 10:02:12;;;;;;;8.98;6.72;;;;;;;28.00;42.98;102521.53;5052972;28;20548;-30
2022/05/07 10:04:53;;;;;;;13.07;10.25;;;;;;;27.87;42.68;102522.09;5053273;28;20073;-32
2022/05/07 10:07:38;;;;;;;9.18;6.93;;;;;;;27.61;43.01;102520.72;5053142;28;20052;-30
2022/05/07 10:10:18;;;;;;;11.02;7.30;;;;;;;27.57;43.26;102522.69;5053330;28;20099;-32
2022/05/07 10:12:48;;;;;;;10.25;6.85;;;;;;;27.47;43.58;102519.53;5053294;28;20472;-33
2022/05/07 10:15:22;;;;;;;10.00;7.28;;;;;;;27.39;43.80;102522.22;5052232;28;20141;-39
2022/05/07 10:17:58;;;;;;;10.20;7.88;;;;;;;27.16;42.93;102520.47;5052824;28;20516;-29
2022/05/07 10:20:37;;;;;;;9.85;7.50;;;;;;;26.91;43.39;102529.25;5053300;28;20049;-30
2022/05/07 10:23:06;;;;;;;10.45;7.57;;;;;;;26.74;44.18;102521.03;5052483;28;20060;-31
2022/05/07 10:25:34;;;;;;;9.18;7.00;;;;;;;26.68;45.14;102528.22;5053160;28;20055;-35
2022/05/07 10:28:11;;;;;;;12.77;9.05;;;;;;;26.71;43.65;102538.94;5052981;28;20053;-32
2022/05/07 10:30:46;;;;;;;11.75;9.20;;;;;;;26.69;44.22;102542.19;5051178;28;20051;-31
2022/05/07 10:33:15;;;;;;;13.25;9.82;;;;;;;26.45;45.07;102527.19;5052897;28;20076;-30
2022/05/07 10:35:45;;;;;;;9.38;6.50;;;;;;;26.12;45.87;102531.16;5051952;28;20053;-36
2022/05/07 10:38:14;;;;;;;10.40;7.90;;;;;;;25.88;46.40;102525.56;5052829;28;20078;-30
2022/05/07 10:40:52;;;;;;;12.60;9.40;;;;;;;25.70;45.53;102525.88;5052738;28;20059;-29
2022/05/07 10:43:33;;;;;;;10.18;7.47;;;;;;;25.62;45.88;102531.69;5051970;28;20053;-30
2022/05/07 10:46:04;;;;;;;12.50;8.18;;;;;;;25.53;46.99;102523.25;5051861;28;20048;-30
2022/05/07 10:48:43;;;;;;;10.43;7.22;;;;;;;25.68;46.80;102530.28;5051917;28;20049;-31
2022/05/07 10:51:18;;;;;;;11.27;7.88;;;;;;;25.83;46.50;102522.94;5051584;28;20540;-38
2022/05/07 10:53:46;;;;;;;10.48;8.40;;;;;;;25.92;45.99;102524.47;5052638;28;20052;-30
2022/05/07 10:56:15;;;;;;;11.23;8.18;;;;;;;25.92;45.31;102524.47;5051093;28;20517;-30
2022/05/07 10:58:49;;;;;;;12.82;9.00;;;;;;;25.99;45.07;102526.69;5051053;28;20053;-38
2022/05/07 11:01:18;;;;;;;10.10;7.05;;;;;;;25.94;45.89;102530.66;5052453;28;20056;-33
2022/05/07 11:03:47;;;;;;;11.70;7.85;;;;;;;25.95;45.94;102529.47;5051574;28;20072;-31
2022/05/07 11:06:15;;;;;;;8.32;5.90;;;;;;;25.91;45.78;102534.25;5049554;28;20147;-32
2022/05/07 11:08:50;;;;;;;11.30;7.20;;;;;;;25.77;45.55;102530.13;5053091;28;20044;-40
2022/05/07 11:11:18;;;;;;;11.23;8.15;;;;;;;25.39;46.84;102531.38;5051870;28;20033;-30
2022/05/07 11:13:49;;;;;;;9.02;5.82;;;;;;;25.18;47.07;102539.28;5052209;28;20421;-30
2022/05/07 11:16:17;;;;;;;9.75;6.63;;;;;;;24.96;48.01;102530.03;5052789;28;20041;-30
2022/05/07 11:18:49;;;;;;;12.50;8.10;;;;;;;24.70;48.96;102538.06;5051476;28;20056;-30
2022/05/07 11:21:16;;;;;;;;;;;;;;;24.22;47.91;102541.59;5052505;28;20049;-30
2022/05/07 11:23:44;;;;;;;13.48;9.27;;;;;;;23.80;51.27;102538.81;5051855;28;19940;-30
2022/05/07 11:26:13;;;;;;;13.80;9.10;;;;;;;23.46;52.14;102541.91;5050709;28;20075;-35
2022/05/07 11:28:43;;;;;;;9.15;6.40;;;;;;;23.23;53.51;102547.09;5051158;28;20363;-32
2022/05/07 11:31:15;;;;;;;16.80;11.45;;;;;;;23.03;53.83;102538.16;5051152;28;20490;-30
2022/05/07 11:33:43;;;;;;;18.52;12.85;;;;;;;22.71;54.84;102550.19;5049877;28;20099;-33
2022/05/07 11:36:11;;;;;;;13.65;10.25;;;;;;;22.42;55.92;102553.78;5050722;28;20052;-35
2022/05/07 11:38:39;;;;;;;12.68;9.68;;;;;;;22.24;56.83;102555.84;5051622;28;20060;-35
2022/05/07 11:41:14;;;;;;;14.45;11.32;;;;;;;22.15;57.28;102554.19;5050756;28;20529;-35
2022/05/07 11:46:54;;;;;;;11.50;7.95;;;;;;;22.16;58.13;102553.88;5051224;28;20454;-36
2022/05/07 11:49:30;;;;;;;13.65;9.68;;;;;;;22.32;58.46;102552.16;5051661;28;20060;-32
2022/05/07 11:52:05;;;;;;;15.30;10.60;;;;;;;22.55;57.83;102554.78;5052146;28;20513;-31
2022/05/07 11:54:33;;;;;;;19.50;12.55;;;;;;;22.71;56.85;102557.88;5051065;28;20049;-30
2022/05/07 11:57:01;;;;;;;18.63;11.77;;;;;;;22.72;56.40;102560.41;5051828;28;20414;-36